createdAt,value
2018-04-15T04:08:53.873Z,94.79
2018-04-15T04:09:19.358Z,95.56
2018-04-15T04:09:44.836Z,95.27
2018-04-15T04:10:10.342Z,95.27
2018-04-15T04:10:35.837Z,95.36
2018-04-15T04:11:01.335Z,95.56
2018-04-15T04:11:26.814Z,95.94
2018-04-15T04:11:52.326Z,95.84
2018-04-15T04:12:17.820Z,95.56
2018-04-15T04:12:43.316Z,95.46
2018-04-15T04:13:08.790Z,95.56
2018-04-15T04:13:34.273Z,96.12
2018-04-15T04:13:59.746Z,96.03
2018-04-15T04:14:25.280Z,95.75
2018-04-15T04:14:50.700Z,96.03
2018-04-15T04:15:16.211Z,95.75
2018-04-15T04:15:41.685Z,95.75
2018-04-15T04:16:07.148Z,95.56
2018-04-15T04:16:32.680Z,96.22
2018-04-15T04:16:58.184Z,95.84
2018-04-15T04:17:23.674Z,96.03
2018-04-15T04:17:49.162Z,96.12
2018-04-15T04:18:14.644Z,96.41
2018-04-15T04:18:40.161Z,96.41
2018-04-15T04:19:05.641Z,96.6
2018-04-15T04:19:31.127Z,96.12
2018-04-15T04:19:56.621Z,96.22
2018-04-15T04:20:22.133Z,96.03
2018-04-15T04:20:47.630Z,96.03
2018-04-15T04:21:13.089Z,96.41
2018-04-15T04:21:38.574Z,96.8
2018-04-15T04:22:04.075Z,96.22
2018-04-15T04:22:29.555Z,97.36
2018-04-15T04:22:55.056Z,96.8
2018-04-15T04:23:20.564Z,97.17
2018-04-15T04:23:46.028Z,96.89
2018-04-15T04:24:11.498Z,96.89
2018-04-15T04:24:36.947Z,96.98
2018-04-15T04:25:02.467Z,96.98
2018-04-15T04:25:27.962Z,97.36
2018-04-15T04:25:53.464Z,97.27
2018-04-15T04:26:18.950Z,97.46
2018-04-15T04:26:44.449Z,97.84
2018-04-15T04:27:09.966Z,97.17
2018-04-15T04:27:35.439Z,97.56
2018-04-15T04:28:00.918Z,97.75
2018-04-15T04:28:26.398Z,98.22
2018-04-15T04:28:51.882Z,98.32
2018-04-15T04:29:17.369Z,97.75
2018-04-15T04:29:42.860Z,97.56
2018-04-15T04:30:08.362Z,97.84
2018-04-15T04:30:33.846Z,97.75
2018-04-15T04:30:59.321Z,97.75
2018-04-15T04:31:24.785Z,98.6
2018-04-15T04:31:50.283Z,98.41
2018-04-15T04:32:15.722Z,98.32
2018-04-15T04:32:41.225Z,98.32
2018-04-15T04:33:06.727Z,98.32
2018-04-15T04:33:32.213Z,98.03
2018-04-15T04:33:57.727Z,98.32
2018-04-15T04:34:23.223Z,98.41
2018-04-15T04:34:48.728Z,97.94
2018-04-15T04:35:14.211Z,98.13
2018-04-15T04:35:39.700Z,98.22
2018-04-15T04:36:05.213Z,98.03
2018-04-15T04:36:30.670Z,98.32
2018-04-15T04:36:56.183Z,98.22
2018-04-15T04:37:54.206Z,98.03
2018-04-15T04:38:19.693Z,98.22
2018-04-15T04:38:45.197Z,98.13
2018-04-15T04:39:10.678Z,97.94
2018-04-15T04:39:36.160Z,98.03
2018-04-15T04:40:01.657Z,98.08
2018-04-15T04:40:27.142Z,98.51
2018-04-15T04:40:52.620Z,98.7
2018-04-15T04:41:18.083Z,98.89
2018-04-15T04:41:43.601Z,98.84
2018-04-15T04:42:09.133Z,98.89
2018-04-15T04:42:34.648Z,99.13
2018-04-15T04:43:00.135Z,99.27
2018-04-15T04:43:25.625Z,99.22
2018-04-15T04:43:51.097Z,99.13
2018-04-15T04:44:16.572Z,99.03
2018-04-15T04:44:42.051Z,99.22
2018-04-15T04:45:07.561Z,99.22
2018-04-15T04:45:33.041Z,99.03
2018-04-15T04:45:58.497Z,99.22
2018-04-15T04:46:24.015Z,99.13
2018-04-15T04:46:49.515Z,99.32
2018-04-15T04:47:15.018Z,99.03
2018-04-15T04:47:40.508Z,99.22
2018-04-15T04:48:05.992Z,99.13
2018-04-15T04:48:31.489Z,98.94
2018-04-15T04:48:56.963Z,99.13
2018-04-15T04:49:22.449Z,99.03
2018-04-15T04:49:47.960Z,99.03
2018-04-15T04:50:13.459Z,98.94
2018-04-15T04:50:38.959Z,99.03
2018-04-15T04:51:04.462Z,99.22
2018-04-15T04:51:29.941Z,99.41
2018-04-15T04:51:55.431Z,99.13
2018-04-15T04:52:20.945Z,99.13
2018-04-15T04:52:46.440Z,99.6
2018-04-15T04:53:11.914Z,99.98
2018-04-15T04:53:37.428Z,99.51
2018-04-15T04:54:02.903Z,99.89
2018-04-15T04:54:28.426Z,99.89
2018-04-15T04:54:53.924Z,99.69
2018-04-15T04:55:19.466Z,99.99
2018-04-15T04:55:44.933Z,99.99
2018-04-15T04:56:10.412Z,99.99
2018-04-15T04:56:35.928Z,99.89
2018-04-15T04:57:01.400Z,99.99
2018-04-15T04:57:26.912Z,99.99
2018-04-15T04:57:52.403Z,99.99
2018-04-15T04:58:17.891Z,99.69
2018-04-15T04:58:43.390Z,99.75
2018-04-15T04:59:08.872Z,99.69
2018-04-15T04:59:34.369Z,99.6
2018-04-15T04:59:59.840Z,99.99
2018-04-15T05:00:25.325Z,99.89
2018-04-15T05:00:50.845Z,99.99
2018-04-15T05:01:16.318Z,99.99
2018-04-15T05:01:41.844Z,99.99
2018-04-15T05:02:07.335Z,99.99
2018-04-15T05:02:32.836Z,99.99
2018-04-15T05:02:58.330Z,99.99
2018-04-15T05:03:23.854Z,99.99
2018-04-15T05:03:49.327Z,99.99
2018-04-15T05:04:14.838Z,99.99
2018-04-15T05:04:40.297Z,99.99
2018-04-15T05:05:05.786Z,99.99
2018-04-15T05:05:31.264Z,99.99
2018-04-15T05:05:56.757Z,99.99
2018-04-15T05:06:22.250Z,99.99
2018-04-15T05:06:47.746Z,99.99
2018-04-15T05:07:13.211Z,99.99
2018-04-15T05:08:11.222Z,99.98
2018-04-15T05:08:36.726Z,99.99
2018-04-15T05:09:02.224Z,99.99
2018-04-15T05:09:27.717Z,99.99
2018-04-15T05:09:53.238Z,99.99
2018-04-15T05:10:18.725Z,99.99
2018-04-15T05:10:44.202Z,99.99
2018-04-15T05:11:09.677Z,99.99
2018-04-15T05:11:35.160Z,99.99
2018-04-15T05:12:00.662Z,99.99
2018-04-15T05:12:26.156Z,99.99
2018-04-15T05:12:51.672Z,99.99
2018-04-15T05:13:17.173Z,99.99
2018-04-15T05:13:42.669Z,99.99
2018-04-15T05:14:08.159Z,99.94
2018-04-15T05:14:33.633Z,99.94
2018-04-15T05:14:59.130Z,99.99
2018-04-15T05:15:24.601Z,99.99
2018-04-15T05:15:50.089Z,99.99
2018-04-15T05:16:15.602Z,99.99
2018-04-15T05:16:41.096Z,99.99
2018-04-15T05:17:06.600Z,99.99
2018-04-15T05:17:32.106Z,99.99
2018-04-15T05:18:30.134Z,99.99
2018-04-15T05:18:55.626Z,99.99
2018-04-15T05:19:21.131Z,99.99
2018-04-15T05:19:46.626Z,99.99
2018-04-15T05:20:12.132Z,99.99
2018-04-15T05:20:37.624Z,99.99
2018-04-15T05:21:03.112Z,99.99
2018-04-15T05:21:28.600Z,99.99
2018-04-15T05:21:54.114Z,99.99
2018-04-15T05:22:19.604Z,99.99
2018-04-15T05:22:45.087Z,99.99
2018-04-15T05:23:10.582Z,99.99
2018-04-15T05:23:36.062Z,99.99
2018-04-15T05:24:01.549Z,99.99
2018-04-15T05:24:27.072Z,99.99
2018-04-15T05:24:52.530Z,99.99
2018-04-15T05:25:18.031Z,99.99
2018-04-15T05:25:43.515Z,99.99
2018-04-15T05:26:09.007Z,99.99
2018-04-15T05:26:34.488Z,99.99
2018-04-15T05:27:00.008Z,99.99
2018-04-15T05:27:25.481Z,99.99
2018-04-15T05:27:50.990Z,99.99
2018-04-15T05:28:16.465Z,99.99
2018-04-15T05:28:41.970Z,99.99
2018-04-15T05:29:07.458Z,99.99
2018-04-15T05:29:32.951Z,99.99
2018-04-15T05:29:58.443Z,99.99
2018-04-15T05:30:23.921Z,99.99
2018-04-15T05:30:49.413Z,99.99
2018-04-15T05:31:14.927Z,99.99
2018-04-15T05:31:40.415Z,99.99
2018-04-15T05:32:05.913Z,99.99
2018-04-15T05:32:31.408Z,99.99
2018-04-15T05:32:56.903Z,99.99
2018-04-15T05:33:22.378Z,99.99
2018-04-15T05:33:47.859Z,99.99
2018-04-15T05:34:13.340Z,99.99
2018-04-15T05:34:38.838Z,99.99
2018-04-15T05:35:04.335Z,99.99
2018-04-15T05:35:29.796Z,99.99
2018-04-15T05:35:55.263Z,99.99
2018-04-15T05:36:20.757Z,99.99
2018-04-15T05:36:46.282Z,99.99
2018-04-15T05:37:11.752Z,99.99
2018-04-15T05:37:37.299Z,99.99
2018-04-15T05:38:02.774Z,99.99
2018-04-15T05:38:28.265Z,99.99
2018-04-15T05:38:53.763Z,99.99
2018-04-15T05:39:19.237Z,99.99
2018-04-15T05:39:44.705Z,99.99
2018-04-15T05:40:10.219Z,99.99
2018-04-15T05:40:35.719Z,99.99
2018-04-15T05:41:01.187Z,99.99
2018-04-15T05:41:26.668Z,99.99
2018-04-15T05:41:52.166Z,99.99
2018-04-15T05:42:17.653Z,99.99
2018-04-15T05:42:43.127Z,99.99
2018-04-15T05:43:08.663Z,99.99
2018-04-15T05:43:34.185Z,99.99
2018-04-15T05:43:59.686Z,99.99
2018-04-15T05:44:25.151Z,99.99
2018-04-15T05:44:50.688Z,99.99
2018-04-15T05:45:16.185Z,99.99
2018-04-15T05:45:41.676Z,99.99
2018-04-15T05:46:07.175Z,99.99
2018-04-15T05:46:32.663Z,99.99
2018-04-15T05:46:58.169Z,99.99
2018-04-15T05:47:23.650Z,99.99
2018-04-15T05:47:49.175Z,99.99
2018-04-15T05:48:14.673Z,99.99
2018-04-15T05:48:40.183Z,99.99
2018-04-15T05:49:05.702Z,99.99
2018-04-15T05:49:31.182Z,99.99
2018-04-15T05:49:56.698Z,99.99
2018-04-15T05:50:22.195Z,99.99
2018-04-15T05:50:47.651Z,99.99
2018-04-15T05:51:13.175Z,99.99
2018-04-15T05:51:38.656Z,99.99
2018-04-15T05:52:04.138Z,99.99
2018-04-15T05:52:29.625Z,99.99
2018-04-15T05:52:55.109Z,99.99
2018-04-15T05:53:20.587Z,99.99
2018-04-15T05:53:46.087Z,99.99
2018-04-15T05:54:11.592Z,99.99
2018-04-15T05:54:37.059Z,99.99
2018-04-15T05:55:02.561Z,99.99
2018-04-15T05:55:28.031Z,99.99
2018-04-15T05:55:53.517Z,99.99
2018-04-15T05:56:19.021Z,99.99
2018-04-15T05:56:44.539Z,99.99
2018-04-15T05:57:10.031Z,99.99
2018-04-15T05:57:35.538Z,99.99
2018-04-15T05:58:01.031Z,99.99
2018-04-15T05:58:26.523Z,99.99
2018-04-15T05:58:52.009Z,99.99
2018-04-15T06:00:00.191Z,99.99
2018-04-15T06:00:25.668Z,99.99
2018-04-15T06:00:51.159Z,99.99
2018-04-15T06:01:16.683Z,99.99
2018-04-15T06:01:42.168Z,99.99
2018-04-15T06:02:07.647Z,99.99
2018-04-15T06:02:33.150Z,99.99
2018-04-15T06:02:58.663Z,99.99
2018-04-15T06:03:24.146Z,99.99
2018-04-15T06:03:49.634Z,99.99
2018-04-15T06:04:15.107Z,99.99
2018-04-15T06:04:40.612Z,99.99
2018-04-15T06:05:06.125Z,99.99
2018-04-15T06:05:31.637Z,99.99
2018-04-15T06:05:57.134Z,99.99
2018-04-15T06:06:22.627Z,99.99
2018-04-15T06:06:48.101Z,99.99
2018-04-15T06:07:13.596Z,99.99
2018-04-15T06:07:39.100Z,99.99
2018-04-15T06:08:04.579Z,99.99
2018-04-15T06:08:30.060Z,99.99
2018-04-15T06:08:55.557Z,99.99
2018-04-15T06:09:21.055Z,99.99
2018-04-15T06:10:30.276Z,99.99
2018-04-15T06:10:55.746Z,99.99
2018-04-15T06:11:21.243Z,99.99
2018-04-15T06:11:46.720Z,99.99
2018-04-15T06:12:12.210Z,99.99
2018-04-15T06:12:37.698Z,99.99
2018-04-15T06:13:03.201Z,99.99
2018-04-15T06:13:28.690Z,99.99
2018-04-15T06:13:54.187Z,99.99
2018-04-15T06:14:19.683Z,99.99
2018-04-15T06:14:45.193Z,99.99
2018-04-15T06:15:10.708Z,99.99
2018-04-15T06:15:36.215Z,99.99
2018-04-15T06:16:01.720Z,99.99
2018-04-15T06:16:27.221Z,99.99
2018-04-15T06:16:52.737Z,99.99
2018-04-15T06:17:18.237Z,99.99
2018-04-15T06:17:43.732Z,99.99
2018-04-15T06:18:09.216Z,99.99
2018-04-15T06:18:34.774Z,99.99
2018-04-15T06:19:00.325Z,99.99
2018-04-15T06:19:25.841Z,99.99
2018-04-15T06:20:39.616Z,99.99
2018-04-15T06:21:05.113Z,99.99
2018-04-15T06:21:30.622Z,99.99
2018-04-15T06:21:56.111Z,99.99
2018-04-15T06:22:21.597Z,99.99
2018-04-15T06:22:47.067Z,99.99
2018-04-15T06:23:12.559Z,99.99
2018-04-15T06:23:38.046Z,99.99
2018-04-15T06:24:03.541Z,99.99
2018-04-15T06:24:29.019Z,99.99
2018-04-15T06:25:37.712Z,99.99
2018-04-15T06:26:03.214Z,99.99
2018-04-15T06:26:28.716Z,99.99
2018-04-15T06:26:54.205Z,99.99
2018-04-15T06:27:19.713Z,99.99
2018-04-15T06:27:45.203Z,99.99
2018-04-15T06:28:10.697Z,99.99
2018-04-15T06:28:36.171Z,99.99
2018-04-15T06:29:01.671Z,99.99
2018-04-15T06:29:27.145Z,99.99
2018-04-15T06:29:52.658Z,99.99
2018-04-15T06:30:18.160Z,99.99
2018-04-15T06:30:43.636Z,99.99
2018-04-15T06:31:09.146Z,99.99
2018-04-15T06:31:34.652Z,99.99
2018-04-15T06:32:00.179Z,99.99
2018-04-15T06:32:25.667Z,99.99
2018-04-15T06:32:51.127Z,99.99
2018-04-15T06:33:16.604Z,99.99
2018-04-15T06:33:42.075Z,99.99
2018-04-15T06:34:07.564Z,99.99
2018-04-15T06:34:33.053Z,99.99
2018-04-15T06:34:58.529Z,99.99
2018-04-15T06:35:24.000Z,99.99
2018-04-15T06:35:49.462Z,99.99
2018-04-15T06:36:14.972Z,99.99
2018-04-15T06:36:40.532Z,99.99
2018-04-15T06:37:05.975Z,99.99
2018-04-15T06:37:31.470Z,99.99
2018-04-15T06:37:56.983Z,99.99
2018-04-15T06:38:22.421Z,99.99
2018-04-15T06:39:26.042Z,99.99
2018-04-15T06:39:51.530Z,99.99
2018-04-15T06:40:17.029Z,99.99
2018-04-15T06:40:42.514Z,99.99
2018-04-15T06:41:08.018Z,99.99
2018-04-15T06:41:33.484Z,99.99
2018-04-15T06:41:58.939Z,99.99
2018-04-15T06:42:24.428Z,99.99
2018-04-15T06:42:49.884Z,99.99
2018-04-15T06:43:15.350Z,99.99
2018-04-15T06:43:40.825Z,99.99
2018-04-15T06:44:06.311Z,99.99
2018-04-15T06:44:31.800Z,99.99
2018-04-15T06:44:57.266Z,99.99
2018-04-15T06:45:22.744Z,99.99
2018-04-15T06:45:48.234Z,99.99
2018-04-15T06:46:46.743Z,99.99
2018-04-15T06:47:12.232Z,99.99
2018-04-15T06:47:37.733Z,99.99
2018-04-15T06:48:03.242Z,99.99
2018-04-15T06:48:28.737Z,99.99
2018-04-15T06:48:54.234Z,99.99
2018-04-15T06:49:19.716Z,99.99
2018-04-15T06:49:45.194Z,99.99
2018-04-15T06:50:10.693Z,99.99
2018-04-15T06:50:36.208Z,99.99
2018-04-15T06:51:01.695Z,99.99
2018-04-15T06:51:27.160Z,99.99
2018-04-15T06:51:52.638Z,99.99
2018-04-15T06:52:51.149Z,99.99
2018-04-15T06:53:16.662Z,99.99
2018-04-15T06:53:42.123Z,99.99
2018-04-15T06:54:07.633Z,99.99
2018-04-15T06:54:33.142Z,99.99
2018-04-15T06:54:58.613Z,99.99
2018-04-15T06:55:24.095Z,99.99
2018-04-15T06:55:49.630Z,99.99
2018-04-15T06:56:15.040Z,99.99
2018-04-15T06:57:13.528Z,99.99
2018-04-15T06:57:39.027Z,99.99
2018-04-15T06:58:04.518Z,99.99
2018-04-15T06:58:30.011Z,99.99
2018-04-15T06:58:55.497Z,99.99
2018-04-15T06:59:20.943Z,99.99
2018-04-15T06:59:46.436Z,99.99
2018-04-15T07:00:50.091Z,99.99
2018-04-15T07:01:15.580Z,99.99
2018-04-15T07:01:41.066Z,99.99
2018-04-15T07:02:06.568Z,99.99
2018-04-15T07:02:32.057Z,99.99
2018-04-15T07:02:57.555Z,99.99
2018-04-15T07:03:23.051Z,99.99
2018-04-15T07:03:48.583Z,99.99
2018-04-15T07:04:14.066Z,99.99
2018-04-15T07:04:39.619Z,99.99
2018-04-15T07:05:05.158Z,99.99
2018-04-15T07:05:30.695Z,99.99
2018-04-15T07:05:56.152Z,99.99
2018-04-15T07:06:21.636Z,99.99
2018-04-15T07:06:47.123Z,99.99
2018-04-15T07:07:12.622Z,99.99
2018-04-15T07:07:38.124Z,99.99
2018-04-15T07:08:03.609Z,99.99
2018-04-15T07:08:29.105Z,99.99
2018-04-15T07:08:54.591Z,99.99
2018-04-15T07:09:20.064Z,99.99
2018-04-15T07:09:45.579Z,99.99
2018-04-15T07:10:11.061Z,99.99
2018-04-15T07:10:36.530Z,99.99
2018-04-15T07:11:02.049Z,99.99
2018-04-15T07:11:27.548Z,99.99
2018-04-15T07:11:53.048Z,99.99
2018-04-15T07:12:18.582Z,99.99
2018-04-15T07:13:32.379Z,99.99
2018-04-15T07:13:57.878Z,99.99
2018-04-15T07:14:23.371Z,99.99
2018-04-15T07:14:48.863Z,99.99
2018-04-15T07:15:14.380Z,99.99
2018-04-15T07:15:39.907Z,99.99
2018-04-15T07:16:05.409Z,99.99
2018-04-15T07:16:30.946Z,99.99
2018-04-15T07:16:56.413Z,99.99
2018-04-15T07:17:21.911Z,99.99
2018-04-15T07:17:47.410Z,99.99
2018-04-15T07:18:12.912Z,99.99
2018-04-15T07:18:38.400Z,99.99
2018-04-15T07:19:03.881Z,99.99
2018-04-15T07:19:29.348Z,99.99
2018-04-15T07:19:54.829Z,99.99
2018-04-15T07:20:20.304Z,99.99
2018-04-15T07:20:45.783Z,99.99
2018-04-15T07:21:11.295Z,99.99
2018-04-15T07:21:36.765Z,99.99
2018-04-15T07:22:02.284Z,99.99
2018-04-15T07:22:27.743Z,99.99
2018-04-15T07:22:53.246Z,99.99
2018-04-15T07:23:18.717Z,99.99
2018-04-15T07:23:44.205Z,99.99
2018-04-15T07:24:09.703Z,99.99
2018-04-15T07:24:35.172Z,99.99
2018-04-15T07:25:00.675Z,99.99
2018-04-15T07:25:26.202Z,99.99
2018-04-15T07:25:51.723Z,99.99
2018-04-15T07:26:17.193Z,99.99
2018-04-15T07:26:42.656Z,99.99
2018-04-15T07:27:08.141Z,99.99
2018-04-15T07:28:06.164Z,99.99
2018-04-15T07:28:31.660Z,99.99
2018-04-15T07:28:57.157Z,99.99
2018-04-15T07:29:22.663Z,99.99
2018-04-15T07:29:48.170Z,99.99
2018-04-15T07:30:13.688Z,99.99
2018-04-15T07:30:39.150Z,99.99
2018-04-15T07:31:04.647Z,99.99
2018-04-15T07:31:30.153Z,99.99
2018-04-15T07:31:55.638Z,99.99
2018-04-15T07:32:21.124Z,99.99
2018-04-15T07:32:46.616Z,99.99
2018-04-15T07:33:12.101Z,99.99
2018-04-15T07:33:37.603Z,99.99
2018-04-15T07:34:03.068Z,99.99
2018-04-15T07:34:28.555Z,99.99
2018-04-15T07:34:54.077Z,99.99
2018-04-15T07:35:19.595Z,99.99
2018-04-15T07:35:45.071Z,99.99
2018-04-15T07:36:10.572Z,99.99
2018-04-15T07:36:36.112Z,99.99
2018-04-15T07:37:01.573Z,99.99
2018-04-15T07:37:27.059Z,99.99
2018-04-15T07:37:52.570Z,99.99
2018-04-15T07:38:18.055Z,99.99
2018-04-15T07:38:43.539Z,99.99
2018-04-15T07:39:09.040Z,99.99
2018-04-15T07:39:34.522Z,99.99
2018-04-15T07:39:59.998Z,99.99
2018-04-15T07:40:25.482Z,99.99
2018-04-15T07:40:50.973Z,99.99
2018-04-15T07:41:16.506Z,99.99
2018-04-15T07:41:42.035Z,99.99
2018-04-15T07:42:07.537Z,99.99
2018-04-15T07:42:33.022Z,99.99
2018-04-15T07:42:58.514Z,99.99
2018-04-15T07:43:24.038Z,99.99
2018-04-15T07:43:49.507Z,99.99
2018-04-15T07:44:15.007Z,99.99
2018-04-15T07:44:40.514Z,99.99
2018-04-15T07:45:06.004Z,99.99
2018-04-15T07:45:31.500Z,99.99
2018-04-15T07:45:56.983Z,99.99
2018-04-15T07:46:22.506Z,99.99
2018-04-15T07:46:47.993Z,99.99
2018-04-15T07:47:13.502Z,99.99
2018-04-15T07:47:39.020Z,99.99
2018-04-15T07:48:04.617Z,99.99
2018-04-15T07:48:30.143Z,99.99
2018-04-15T07:48:55.726Z,99.99
2018-04-15T07:49:21.212Z,99.99
2018-04-15T07:49:46.719Z,99.99
2018-04-15T07:50:12.224Z,99.99
2018-04-15T07:50:37.721Z,99.99
2018-04-15T07:51:03.216Z,99.99
2018-04-15T07:51:28.746Z,99.99
2018-04-15T07:51:54.246Z,99.99
2018-04-15T07:52:19.758Z,99.99
2018-04-15T07:52:45.262Z,99.99
2018-04-15T07:53:10.753Z,99.99
2018-04-15T07:53:36.241Z,99.99
2018-04-15T07:54:01.755Z,99.99
2018-04-15T07:54:27.259Z,99.99
2018-04-15T07:54:52.742Z,99.99
2018-04-15T07:55:51.269Z,99.99
2018-04-15T07:56:16.804Z,99.99
2018-04-15T07:56:42.264Z,99.99
2018-04-15T07:57:07.751Z,99.99
2018-04-15T07:57:33.281Z,99.99
2018-04-15T07:58:31.798Z,99.99
2018-04-15T07:58:57.409Z,99.99
2018-04-15T07:59:22.819Z,99.99
2018-04-15T07:59:48.318Z,99.99
2018-04-15T08:00:13.808Z,99.99
2018-04-15T08:00:39.323Z,99.99
2018-04-15T08:01:04.820Z,99.99
2018-04-15T08:01:30.307Z,99.99
2018-04-15T08:01:55.803Z,99.99
2018-04-15T08:02:21.323Z,99.99
2018-04-15T08:02:46.781Z,99.99
2018-04-15T08:03:12.269Z,99.99
2018-04-15T08:03:37.810Z,99.99
2018-04-15T08:04:03.388Z,99.99
2018-04-15T08:04:28.838Z,99.99
2018-04-15T08:04:54.338Z,99.99
2018-04-15T08:05:19.829Z,99.99
2018-04-15T08:05:45.500Z,99.99
2018-04-15T08:06:11.103Z,99.99
2018-04-15T08:06:36.592Z,99.99
2018-04-15T08:07:02.196Z,99.99
2018-04-15T08:07:27.694Z,99.99
2018-04-15T08:07:53.195Z,99.99
2018-04-15T08:08:18.673Z,99.99
2018-04-15T08:08:44.174Z,99.99
2018-04-15T08:09:09.670Z,99.99
2018-04-15T08:09:35.130Z,99.99
2018-04-15T08:10:00.628Z,99.99
2018-04-15T08:10:26.121Z,99.99
2018-04-15T08:10:51.604Z,99.99
2018-04-15T08:11:17.255Z,99.99
2018-04-15T08:11:42.821Z,99.99
2018-04-15T08:12:08.309Z,99.99
2018-04-15T08:12:33.778Z,99.99
2018-04-15T08:12:59.292Z,99.99
2018-04-15T08:13:24.980Z,99.99
2018-04-15T08:13:50.425Z,99.99
2018-04-15T08:14:15.941Z,99.99
2018-04-15T08:14:41.435Z,99.99
2018-04-15T08:15:06.952Z,99.99
2018-04-15T08:15:32.434Z,99.99
2018-04-15T08:15:57.935Z,99.99
2018-04-15T08:16:23.423Z,99.99
2018-04-15T08:16:48.926Z,99.99
2018-04-15T08:17:14.463Z,99.99
2018-04-15T08:17:39.907Z,99.99
2018-04-15T08:18:05.430Z,99.99
2018-04-15T08:18:30.918Z,99.99
2018-04-15T08:18:56.407Z,99.99
2018-04-15T08:19:21.921Z,99.99
2018-04-15T08:19:47.395Z,99.99
2018-04-15T08:20:12.900Z,99.99
2018-04-15T08:20:38.388Z,99.99
2018-04-15T08:21:03.904Z,99.99
2018-04-15T08:21:29.395Z,99.99
2018-04-15T08:21:54.901Z,99.99
2018-04-15T08:22:20.390Z,99.99
2018-04-15T08:22:45.885Z,99.99
2018-04-15T08:23:11.368Z,99.99
2018-04-15T08:23:36.885Z,99.99
2018-04-15T08:24:02.346Z,99.99
2018-04-15T08:24:27.854Z,99.99
2018-04-15T08:24:53.423Z,99.99
2018-04-15T08:25:19.024Z,99.99
2018-04-15T08:26:11.980Z,99.99
2018-04-15T08:26:37.589Z,99.99
2018-04-15T08:27:03.065Z,99.99
2018-04-15T08:27:28.641Z,99.99
2018-04-15T08:27:54.184Z,99.99
2018-04-15T08:28:19.659Z,99.99
2018-04-15T08:28:45.149Z,99.71
2018-04-15T08:29:10.640Z,98.75
2018-04-15T08:30:13.731Z,99.81
2018-04-15T08:30:39.224Z,99.62
2018-04-15T08:31:04.731Z,99.62
2018-04-15T08:31:30.246Z,99.67
2018-04-15T08:31:55.745Z,99.67
2018-04-15T08:32:21.246Z,99.29
2018-04-15T08:32:46.744Z,99.38
2018-04-15T08:33:12.252Z,99.1
2018-04-15T08:33:37.729Z,99.48
2018-04-15T08:34:03.212Z,98.61
2018-04-15T08:34:28.710Z,98.33
2018-04-15T08:34:54.205Z,98.43
2018-04-15T08:35:19.720Z,98.33
2018-04-15T08:35:45.229Z,98.33
2018-04-15T08:36:10.721Z,98.61
2018-04-15T08:36:36.205Z,97.85
2018-04-15T08:37:01.783Z,97.75
2018-04-15T08:37:27.143Z,97.47
2018-04-15T08:37:52.640Z,96.8
2018-04-15T08:38:18.132Z,96.51
2018-04-15T08:38:43.664Z,96.51
2018-04-15T08:39:09.147Z,96.22
2018-04-15T08:39:34.644Z,96.03
2018-04-15T08:40:00.129Z,96.32
2018-04-15T08:40:25.631Z,96.13
2018-04-15T08:40:51.204Z,96.42
2018-04-15T08:41:16.593Z,96.03
2018-04-15T08:41:42.025Z,96.03
2018-04-15T08:42:07.547Z,96.13
2018-04-15T08:42:32.972Z,96.03
2018-04-15T08:43:26.419Z,95.75
2018-04-15T08:43:51.925Z,96.13
2018-04-15T08:44:17.422Z,96.13
2018-04-15T08:44:42.906Z,96.03
2018-04-15T08:45:08.413Z,96.13
2018-04-15T08:45:33.917Z,95.94
2018-04-15T08:45:59.408Z,96.03
2018-04-15T08:46:24.898Z,95.75
2018-04-15T08:46:50.414Z,94.7
2018-04-15T08:47:15.911Z,94.31
2018-04-15T08:47:41.403Z,93.55
2018-04-15T08:48:06.929Z,93.26
2018-04-15T08:48:32.434Z,93.84
2018-04-15T08:48:57.925Z,93.69
2018-04-15T08:49:23.425Z,93.74
2018-04-15T08:49:48.959Z,93.93
2018-04-15T08:50:14.420Z,94.21
2018-04-15T08:50:39.923Z,94.41
2018-04-15T08:51:05.426Z,94.5
2018-04-15T08:51:30.923Z,94.74
2018-04-15T08:51:56.443Z,94.36
2018-04-15T08:52:21.920Z,94.36
2018-04-15T08:52:47.420Z,94.55
2018-04-15T08:53:12.912Z,94.26
2018-04-15T08:53:38.446Z,93.02
2018-04-15T08:54:03.925Z,92.92
2018-04-15T08:54:29.483Z,93.02
2018-04-15T08:54:54.932Z,92.83
2018-04-15T08:55:20.434Z,91.68
2018-04-15T08:55:45.920Z,91.77
2018-04-15T08:56:11.425Z,91.77
2018-04-15T08:56:36.911Z,91.77
2018-04-15T08:57:02.411Z,91.87
2018-04-15T08:57:27.901Z,91.77
2018-04-15T08:57:53.380Z,92.44
2018-04-15T08:58:18.866Z,92.06
2018-04-15T08:58:44.359Z,92.63
2018-04-15T08:59:09.838Z,92.44
2018-04-15T08:59:35.362Z,93.4
2018-04-15T09:00:00.842Z,93.3
2018-04-15T09:00:26.333Z,92.63
2018-04-15T09:00:51.835Z,92.54
2018-04-15T09:01:17.291Z,92.63
2018-04-15T09:01:42.766Z,91.87
2018-04-15T09:02:08.250Z,90.77
2018-04-15T09:02:33.734Z,90.2
2018-04-15T09:02:59.240Z,90.15
2018-04-15T09:03:24.763Z,90.39
2018-04-15T09:03:50.267Z,90.67
2018-04-15T09:04:15.739Z,91.44
2018-04-15T09:04:41.240Z,91.63
2018-04-15T09:05:06.726Z,91.44
2018-04-15T09:05:32.244Z,92.11
2018-04-15T09:05:57.745Z,91.83
2018-04-15T09:06:23.213Z,92.4
2018-04-15T09:06:48.697Z,92.3
2018-04-15T09:07:14.219Z,92.49
2018-04-15T09:07:39.709Z,92.49
2018-04-15T09:08:05.206Z,92.49
2018-04-15T09:08:30.669Z,92.4
2018-04-15T09:08:56.169Z,92.59
2018-04-15T09:09:21.620Z,92.59
2018-04-15T09:09:47.161Z,92.49
2018-04-15T09:10:12.607Z,92.97
2018-04-15T09:10:38.112Z,93.3
2018-04-15T09:11:03.622Z,93.3
2018-04-15T09:11:29.122Z,93.12
2018-04-15T09:11:54.603Z,92.73
2018-04-15T09:12:20.094Z,92.54
2018-04-15T09:12:45.593Z,92.54
2018-04-15T09:13:11.145Z,92.44
2018-04-15T09:13:36.641Z,93.45
2018-04-15T09:14:02.135Z,94.12
2018-04-15T09:14:27.631Z,93.07
2018-04-15T09:14:53.127Z,91.63
2018-04-15T09:15:18.625Z,90.96
2018-04-15T09:15:44.124Z,90.29
2018-04-15T09:16:09.593Z,89.81
2018-04-15T09:16:35.079Z,89.72
2018-04-15T09:17:00.576Z,88.66
2018-04-15T09:17:26.050Z,89.52
2018-04-15T09:17:51.544Z,89.62
2018-04-15T09:18:17.137Z,89.72
2018-04-15T09:18:42.588Z,89.52
2018-04-15T09:19:08.119Z,89.62
2018-04-15T09:19:33.639Z,89.52
2018-04-15T09:19:59.117Z,89.62
2018-04-15T09:20:24.615Z,90
2018-04-15T09:20:50.120Z,89.52
2018-04-15T09:21:15.617Z,88.47
2018-04-15T09:21:41.123Z,87.51
2018-04-15T09:22:06.611Z,88.47
2018-04-15T09:22:32.111Z,88.85
2018-04-15T09:22:57.695Z,89.14
2018-04-15T09:23:23.093Z,90
2018-04-15T09:23:48.601Z,90.39
2018-04-15T09:24:14.093Z,90.19
2018-04-15T09:24:39.607Z,90.09
2018-04-15T09:25:05.118Z,90.29
2018-04-15T09:25:30.617Z,90.09
2018-04-15T09:25:56.115Z,89.9
2018-04-15T09:26:21.616Z,90.58
2018-04-15T09:26:47.109Z,90.29
2018-04-15T09:27:12.611Z,90.77
2018-04-15T09:27:38.097Z,90
2018-04-15T09:28:03.585Z,89.72
2018-04-15T09:28:29.065Z,89.9
2018-04-15T09:28:54.561Z,90.09
2018-04-15T09:29:20.051Z,90.19
2018-04-15T09:29:45.533Z,90.53
2018-04-15T09:30:11.083Z,91.58
2018-04-15T09:30:36.535Z,91.96
2018-04-15T09:31:02.051Z,92.54
2018-04-15T09:31:27.551Z,91.86
2018-04-15T09:31:53.019Z,90.81
2018-04-15T09:32:18.535Z,89.86
2018-04-15T09:32:44.025Z,89.66
2018-04-15T09:33:09.538Z,87.27
2018-04-15T09:33:35.014Z,86.12
2018-04-15T09:34:00.502Z,85.06
2018-04-15T09:34:25.997Z,85.35
2018-04-15T09:34:51.496Z,84.58
2018-04-15T09:35:16.985Z,85.06
2018-04-15T09:35:42.450Z,85.35
2018-04-15T09:36:07.955Z,85.35
2018-04-15T09:36:33.429Z,85.06
2018-04-15T09:36:58.914Z,84.88
2018-04-15T09:37:24.410Z,85.45
2018-04-15T09:37:49.909Z,85.64
2018-04-15T09:38:15.403Z,86.12
2018-04-15T09:38:40.873Z,85.98
2018-04-15T09:39:06.360Z,86.36
2018-04-15T09:39:31.853Z,86.94
2018-04-15T09:39:57.359Z,87.61
2018-04-15T09:40:22.835Z,87.7
2018-04-15T09:40:48.327Z,87.61
2018-04-15T09:41:13.804Z,87.7
2018-04-15T09:41:39.314Z,87.61
2018-04-15T09:42:04.817Z,86.65
2018-04-15T09:42:30.313Z,86.46
2018-04-15T09:42:55.803Z,87.03
2018-04-15T09:43:21.307Z,87.32
2018-04-15T09:43:46.822Z,87.9
2018-04-15T09:44:12.326Z,87.41
2018-04-15T09:44:37.823Z,86.21
2018-04-15T09:45:03.318Z,86.12
2018-04-15T09:45:28.803Z,85.16
2018-04-15T09:45:54.282Z,85.35
2018-04-15T09:46:19.815Z,84.88
2018-04-15T09:46:45.274Z,85.74
2018-04-15T09:47:10.764Z,86.12
2018-04-15T09:47:36.273Z,85.93
2018-04-15T09:48:01.766Z,86.12
2018-04-15T09:48:27.259Z,87.17
2018-04-15T09:48:52.765Z,87.37